Terminal Aerodrome Forecast
Issued by NWS Denver/Boulder, CO

Home | Current Version | Previous Version | Text Only | Print | Product List | Glossary On
Versions: 1 2 3 4 5 6 7 8 9 10 11 12 13 14 15 16 17 18 19 20 21 22 23 24 25 26 27 28 29 30 31 32 33 34 35 36 37 38 39 40 41 42 43 44 45 46 47 48 49 50
000
FTUS45 KBOU 060908 AAB
TAFDEN
TAF AMD
KDEN 060908Z 0609/0712 29008KT P6SM -RA BKN005 OVC025
      TEMPO 0609/0611 4SM -RA BR
     FM061100 28006KT P6SM VCSH SCT006 BKN025 OVC035
      TEMPO 0611/0613 5SM -RA BR BKN006
     FM061300 29006KT P6SM VCFG FEW002 SCT008 OVC040
     FM061600 VRB05KT P6SM SCT040 BKN070
     FM062000 02010KT P6SM SCT040 BKN080 OVC120
      TEMPO 0621/0701 VRB15G30KT 3SM TSRA BKN030CB
     FM070200 03010KT P6SM SCT015 OVC030
     FM070600 03006KT P6SM VCFG SCT010 BKN020=

USA.gov is the U.S. government's official web portal to all federal, state and local government web resources and services.